createdAt,value
2023-06-10T00:04:18.437Z,99.90
2023-06-10T00:09:23.846Z,99.90
2023-06-10T00:14:28.217Z,99.90
2023-06-10T00:19:31.545Z,99.90
2023-06-10T00:24:36.515Z,99.90
2023-06-10T00:29:40.376Z,99.90
2023-06-10T00:34:43.879Z,99.90
2023-06-10T00:39:48.540Z,99.90
2023-06-10T00:44:52.608Z,99.90
2023-06-10T00:49:57.129Z,99.90
2023-06-10T00:55:04.291Z,99.90
2023-06-10T01:00:09.984Z,99.90
2023-06-10T01:05:15.252Z,99.90
2023-06-10T01:10:25.918Z,99.90
2023-06-10T01:15:30.917Z,99.90
2023-06-10T01:20:34.987Z,99.90
2023-06-10T01:25:45.253Z,99.90
2023-06-10T01:30:57.535Z,99.90
2023-06-10T01:36:03.030Z,99.90
2023-06-10T01:41:08.446Z,99.90
2023-06-10T01:46:12.440Z,99.90
2023-06-10T01:51:16.240Z,99.90
2023-06-10T01:56:21.703Z,99.90
2023-06-10T02:01:25.463Z,99.90
2023-06-10T02:06:29.533Z,99.90
2023-06-10T02:11:34.610Z,99.90
2023-06-10T02:16:38.110Z,99.90
2023-06-10T02:21:42.676Z,99.90
2023-06-10T02:26:49.052Z,99.90
2023-06-10T02:31:54.037Z,99.90
2023-06-10T02:36:57.789Z,99.90
2023-06-10T02:42:02.923Z,99.90
2023-06-10T02:47:07.099Z,99.90
2023-06-10T02:52:13.295Z,99.90
2023-06-10T02:57:18.566Z,99.90
2023-06-10T03:02:22.653Z,99.90
2023-06-10T03:07:28.823Z,99.90
2023-06-10T03:12:33.867Z,99.90
2023-06-10T03:17:37.597Z,99.90
2023-06-10T03:22:41.438Z,99.90
2023-06-10T03:27:48.464Z,99.90
2023-06-10T03:32:52.485Z,99.90
2023-06-10T03:37:59.021Z,99.90
2023-06-10T03:43:04.698Z,99.90
2023-06-10T03:48:09.828Z,99.90
2023-06-10T03:53:21.308Z,99.90
2023-06-10T03:58:27.359Z,99.90
2023-06-10T04:03:31.052Z,99.90
2023-06-10T04:08:35.324Z,99.90
2023-06-10T04:13:40.721Z,99.90
2023-06-10T04:18:44.335Z,99.90
2023-06-10T04:23:49.771Z,99.90
2023-06-10T04:28:55.609Z,99.90
2023-06-10T04:34:01.932Z,99.90
2023-06-10T04:39:09.148Z,99.90
2023-06-10T04:44:15.491Z,99.90
2023-06-10T04:49:19.711Z,99.90
2023-06-10T04:54:23.670Z,99.90
2023-06-10T04:59:28.897Z,99.90
2023-06-10T05:04:33.004Z,99.90
2023-06-10T05:09:38.100Z,99.90
2023-06-10T05:14:42.874Z,99.90
2023-06-10T05:19:48.283Z,99.90
2023-06-10T05:24:52.307Z,99.90
2023-06-10T05:29:57.607Z,99.90
2023-06-10T05:35:02.058Z,99.90
2023-06-10T05:40:07.226Z,99.90
2023-06-10T05:45:12.920Z,99.90
2023-06-10T05:50:16.718Z,99.90
2023-06-10T05:55:20.537Z,99.40
2023-06-10T06:00:25.382Z,99.90
2023-06-10T06:05:28.733Z,97.20
2023-06-10T06:17:37.840Z,98.70
2023-06-10T06:22:41.149Z,96.20
2023-06-10T06:27:45.552Z,94.30
2023-06-10T06:32:50.605Z,92.90
2023-06-10T06:37:53.992Z,90.40
2023-06-10T06:43:02.686Z,87.90
2023-06-10T06:48:16.807Z,88.40
2023-06-10T06:53:20.351Z,91.70
2023-06-10T06:58:23.810Z,92.40
2023-06-10T07:03:28.496Z,91.70
2023-06-10T07:08:31.867Z,87.20
2023-06-10T07:13:35.418Z,84.80
2023-06-10T07:18:40.440Z,86.90
2023-06-10T07:23:44.698Z,84.40
2023-06-10T07:28:48.114Z,84.30
2023-06-10T07:33:53.026Z,86.80
2023-06-10T07:38:56.766Z,90.90
2023-06-10T07:44:01.455Z,90.50
2023-06-10T07:49:08.301Z,89.40
2023-06-10T07:54:13.337Z,87.90
2023-06-10T07:59:17.569Z,89.20
2023-06-10T08:04:22.590Z,86.10
2023-06-10T08:09:26.512Z,82.60
2023-06-10T08:14:29.930Z,77.40
2023-06-10T08:19:34.742Z,73.00
2023-06-10T08:24:38.338Z,70.20
2023-06-10T08:29:41.738Z,72.10
2023-06-10T08:34:47.010Z,76.20
2023-06-10T08:39:50.977Z,77.00
2023-06-10T08:44:56.394Z,78.00
2023-06-10T08:50:05.201Z,78.60
2023-06-10T08:55:15.129Z,79.90
2023-06-10T09:00:18.971Z,80.30
2023-06-10T09:05:24.143Z,83.60
2023-06-10T09:10:28.147Z,86.50
2023-06-10T09:15:31.720Z,87.50
2023-06-10T09:20:36.950Z,88.10
2023-06-10T09:25:40.772Z,87.90
2023-06-10T09:30:44.259Z,89.50
2023-06-10T09:35:50.476Z,89.70
2023-06-10T09:40:55.349Z,90.40
2023-06-10T09:45:59.335Z,91.00
2023-06-10T09:51:10.212Z,91.00
2023-06-10T09:56:13.767Z,91.70
2023-06-10T10:01:17.439Z,91.40
2023-06-10T10:06:22.435Z,91.70
2023-06-10T10:11:27.351Z,93.30
2023-06-10T10:16:36.868Z,93.20
2023-06-10T10:21:48.260Z,93.20
2023-06-10T10:26:54.269Z,93.40
2023-06-10T10:32:01.756Z,94.00
2023-06-10T10:37:07.329Z,95.80
2023-06-10T10:42:11.594Z,96.90
2023-06-10T10:47:16.468Z,98.20
2023-06-10T10:52:21.313Z,98.70
2023-06-10T10:57:25.279Z,98.40
2023-06-10T11:02:38.317Z,97.10
2023-06-10T11:07:55.416Z,97.00
2023-06-10T11:13:00.377Z,96.00
2023-06-10T11:18:11.055Z,94.50
2023-06-10T11:23:34.701Z,93.80
2023-06-10T11:28:38.284Z,93.50
2023-06-10T11:33:43.168Z,92.20
2023-06-10T11:38:47.852Z,91.50
2023-06-10T11:43:51.542Z,90.70
2023-06-10T11:48:56.129Z,90.40
2023-06-10T11:54:00.908Z,91.00
2023-06-10T11:59:06.683Z,85.80
2023-06-10T12:04:11.462Z,90.50
2023-06-10T12:09:27.040Z,92.10
2023-06-10T12:15:00.257Z,92.10
2023-06-10T12:20:06.794Z,91.90
2023-06-10T12:25:13.141Z,90.20
2023-06-10T12:30:20.493Z,89.50
2023-06-10T12:35:28.615Z,88.10
2023-06-10T12:40:35.094Z,88.60
2023-06-10T12:45:44.468Z,86.40
2023-06-10T12:50:53.956Z,84.30
2023-06-10T12:55:59.119Z,79.90
2023-06-10T13:01:03.198Z,78.00
2023-06-10T13:06:07.575Z,71.00
2023-06-10T13:11:12.334Z,69.30
2023-06-10T13:16:16.011Z,69.60
2023-06-10T13:21:19.457Z,69.70
2023-06-10T13:26:24.460Z,70.50
2023-06-10T13:31:28.050Z,72.40
2023-06-10T13:36:31.590Z,72.10
2023-06-10T13:41:36.488Z,69.00
2023-06-10T13:46:39.980Z,66.50
2023-06-10T13:51:43.401Z,66.00
2023-06-10T13:56:48.224Z,66.00
2023-06-10T14:01:51.689Z,64.20
2023-06-10T14:06:55.165Z,64.00
2023-06-10T14:12:00.251Z,65.50
2023-06-10T14:17:05.367Z,62.70
2023-06-10T14:22:09.450Z,64.40
2023-06-10T14:27:14.224Z,61.80
2023-06-10T14:32:17.727Z,60.80
2023-06-10T14:37:21.115Z,56.40
2023-06-10T14:42:25.993Z,55.00
2023-06-10T14:47:29.493Z,55.30
2023-06-10T14:52:32.956Z,54.40
2023-06-10T14:57:37.671Z,54.80
2023-06-10T15:02:41.561Z,52.10
2023-06-10T15:07:45.179Z,53.10
2023-06-10T15:12:56.562Z,53.80
2023-06-10T15:18:00.127Z,53.40
2023-06-10T15:23:03.550Z,52.20
2023-06-10T15:28:09.246Z,52.40
2023-06-10T15:33:13.434Z,50.70
2023-06-10T15:38:17.041Z,51.60
2023-06-10T15:43:21.757Z,51.80
2023-06-10T15:48:25.201Z,51.20
2023-06-10T15:53:28.764Z,51.30
2023-06-10T15:58:33.534Z,51.30
2023-06-10T16:03:37.086Z,52.50
2023-06-10T16:08:41.634Z,54.30
2023-06-10T16:13:46.466Z,54.70
2023-06-10T16:18:50.442Z,54.00
2023-06-10T16:23:53.918Z,52.20
2023-06-10T16:28:58.636Z,52.60
2023-06-10T16:34:02.100Z,51.70
2023-06-10T16:39:05.559Z,52.10
2023-06-10T16:44:10.447Z,50.80
2023-06-10T16:49:14.513Z,52.60
2023-06-10T16:54:18.149Z,52.60
2023-06-10T16:59:23.214Z,49.60
2023-06-10T17:04:27.100Z,48.10
2023-06-10T17:09:30.498Z,47.10
2023-06-10T17:14:35.948Z,47.50
2023-06-10T17:19:39.320Z,47.30
2023-06-10T17:24:42.851Z,48.90
2023-06-10T17:29:47.582Z,49.00
2023-06-10T17:34:50.971Z,48.70
2023-06-10T17:39:54.386Z,48.70
2023-06-10T17:44:59.082Z,49.00
2023-06-10T17:50:02.542Z,49.20
2023-06-10T17:55:06.377Z,49.40
2023-06-10T18:00:12.379Z,49.80
2023-06-10T18:05:16.137Z,51.30
2023-06-10T18:10:21.846Z,54.00
2023-06-10T18:15:27.755Z,56.10
2023-06-10T18:20:31.861Z,61.40
2023-06-10T18:25:35.337Z,64.20
2023-06-10T18:30:40.211Z,65.10
2023-06-10T18:35:44.377Z,66.20
2023-06-10T18:40:48.018Z,62.10
2023-06-10T18:45:53.636Z,62.40
2023-06-10T18:50:57.738Z,60.90
2023-06-10T18:56:04.123Z,62.40
2023-06-10T19:01:08.947Z,62.90
2023-06-10T19:06:12.376Z,63.00
2023-06-10T19:11:15.887Z,64.70
2023-06-10T19:16:21.253Z,66.30
2023-06-10T19:21:24.728Z,68.10
2023-06-10T19:27:12.682Z,68.00
2023-06-10T19:32:21.187Z,68.00
2023-06-10T19:38:20.398Z,68.60
2023-06-10T19:43:25.177Z,69.50
2023-06-10T19:48:29.864Z,69.50
2023-06-10T19:53:33.276Z,69.50
2023-06-10T19:58:36.763Z,69.60
2023-06-10T20:03:41.446Z,69.30
2023-06-10T20:08:44.896Z,70.10
2023-06-10T20:13:48.331Z,70.20
2023-06-10T20:18:53.122Z,69.70
2023-06-10T20:23:56.497Z,70.10
2023-06-10T20:29:00.406Z,69.00
2023-06-10T20:34:05.106Z,68.60
2023-06-10T20:39:09.167Z,68.30
2023-06-10T20:44:14.812Z,67.90
2023-06-10T20:49:19.658Z,67.70
2023-06-10T20:54:23.028Z,68.60
2023-06-10T20:59:26.389Z,67.90
2023-06-10T21:04:31.413Z,67.40
2023-06-10T21:09:35.559Z,67.40
2023-06-10T21:14:39.113Z,67.50
2023-06-10T21:19:43.909Z,67.40
2023-06-10T21:24:47.332Z,68.30
2023-06-10T21:29:57.891Z,68.30
2023-06-10T21:42:15.555Z,68.60
2023-06-10T21:47:19.176Z,69.50
2023-06-10T21:52:22.609Z,70.00
2023-06-10T21:57:28.046Z,70.30
2023-06-10T22:02:31.663Z,71.30
2023-06-10T22:07:35.372Z,71.10
2023-06-10T22:12:40.171Z,71.70
2023-06-10T22:17:44.159Z,72.20
2023-06-10T22:22:48.411Z,73.10
2023-06-10T22:27:53.326Z,73.80
2023-06-10T22:32:56.731Z,73.60
2023-06-10T22:38:00.138Z,75.30
2023-06-10T22:43:05.160Z,75.40
2023-06-10T22:48:08.824Z,76.80
2023-06-10T22:53:12.330Z,76.50
2023-06-10T22:58:18.879Z,77.40
2023-06-10T23:03:24.403Z,76.80
2023-06-10T23:08:27.742Z,78.40
2023-06-10T23:13:32.556Z,78.60
2023-06-10T23:18:35.936Z,78.20
2023-06-10T23:23:39.676Z,78.80
2023-06-10T23:28:44.676Z,80.20
2023-06-10T23:33:50.172Z,81.20
2023-06-10T23:38:53.885Z,82.10
2023-06-10T23:43:58.639Z,85.00
2023-06-10T23:49:02.514Z,85.60
2023-06-10T23:54:06.226Z,87.20
2023-06-10T23:59:10.919Z,90.30
